sensor_id;sensor_type;location;lat;lon;timestamp;temperature;humidity
15638;DHT22;26604;53.596;10.042;2023-09-12T00:00:13;19.90;99.90
15638;DHT22;26604;53.596;10.042;2023-09-12T00:02:40;19.90;99.90
15638;DHT22;26604;53.596;10.042;2023-09-12T00:05:07;19.90;99.90
15638;DHT22;26604;53.596;10.042;2023-09-12T00:07:35;19.90;99.90
15638;DHT22;26604;53.596;10.042;2023-09-12T00:10:02;19.90;99.90
15638;DHT22;26604;53.596;10.042;2023-09-12T00:12:29;19.90;99.90
15638;DHT22;26604;53.596;10.042;2023-09-12T00:14:55;19.90;99.90
15638;DHT22;26604;53.596;10.042;2023-09-12T00:17:24;19.90;99.90
15638;DHT22;26604;53.596;10.042;2023-09-12T00:19:52;19.90;99.90
15638;DHT22;26604;53.596;10.042;2023-09-12T00:22:19;19.90;99.90
15638;DHT22;26604;53.596;10.042;2023-09-12T00:24:46;20.00;99.90
15638;DHT22;26604;53.596;10.042;2023-09-12T00:27:13;19.90;99.90
15638;DHT22;26604;53.596;10.042;2023-09-12T00:29:39;20.00;99.90
15638;DHT22;26604;53.596;10.042;2023-09-12T00:32:06;19.90;99.90
15638;DHT22;26604;53.596;10.042;2023-09-12T00:34:34;19.80;99.90
15638;DHT22;26604;53.596;10.042;2023-09-12T00:37:01;19.90;99.90
15638;DHT22;26604;53.596;10.042;2023-09-12T00:39:28;19.80;99.90
15638;DHT22;26604;53.596;10.042;2023-09-12T00:41:55;19.80;99.90
15638;DHT22;26604;53.596;10.042;2023-09-12T00:44:22;19.80;99.90
15638;DHT22;26604;53.596;10.042;2023-09-12T00:46:49;19.70;99.90
15638;DHT22;26604;53.596;10.042;2023-09-12T00:49:17;19.70;99.90
15638;DHT22;26604;53.596;10.042;2023-09-12T00:51:47;19.70;99.90
15638;DHT22;26604;53.596;10.042;2023-09-12T00:54:14;19.60;99.90
15638;DHT22;26604;53.596;10.042;2023-09-12T00:56:42;19.60;99.90
15638;DHT22;26604;53.596;10.042;2023-09-12T00:59:10;19.60;99.90
15638;DHT22;26604;53.596;10.042;2023-09-12T01:01:37;19.50;99.90
15638;DHT22;26604;53.596;10.042;2023-09-12T01:04:04;19.50;99.90
15638;DHT22;26604;53.596;10.042;2023-09-12T01:06:32;19.50;99.90
15638;DHT22;26604;53.596;10.042;2023-09-12T01:09:01;19.40;99.90
15638;DHT22;26604;53.596;10.042;2023-09-12T01:11:28;19.40;99.90
15638;DHT22;26604;53.596;10.042;2023-09-12T01:13:55;19.40;99.90
15638;DHT22;26604;53.596;10.042;2023-09-12T01:16:22;19.40;99.90
15638;DHT22;26604;53.596;10.042;2023-09-12T01:18:49;19.30;99.90
15638;DHT22;26604;53.596;10.042;2023-09-12T01:21:38;19.30;99.90
15638;DHT22;26604;53.596;10.042;2023-09-12T01:24:23;19.30;99.90
15638;DHT22;26604;53.596;10.042;2023-09-12T01:29:55;19.20;99.90
15638;DHT22;26604;53.596;10.042;2023-09-12T01:32:23;19.10;99.90
15638;DHT22;26604;53.596;10.042;2023-09-12T01:34:50;19.10;99.90
15638;DHT22;26604;53.596;10.042;2023-09-12T01:37:17;19.00;99.90
15638;DHT22;26604;53.596;10.042;2023-09-12T01:39:43;19.00;99.90
15638;DHT22;26604;53.596;10.042;2023-09-12T01:42:14;19.00;99.90
15638;DHT22;26604;53.596;10.042;2023-09-12T01:44:43;19.00;99.90
15638;DHT22;26604;53.596;10.042;2023-09-12T01:47:13;19.00;99.90
15638;DHT22;26604;53.596;10.042;2023-09-12T01:49:49;19.00;99.90
15638;DHT22;26604;53.596;10.042;2023-09-12T01:52:17;19.10;99.90
15638;DHT22;26604;53.596;10.042;2023-09-12T01:54:45;19.00;99.90
15638;DHT22;26604;53.596;10.042;2023-09-12T01:57:13;19.10;99.90
15638;DHT22;26604;53.596;10.042;2023-09-12T01:59:41;19.10;99.90
15638;DHT22;26604;53.596;10.042;2023-09-12T02:02:08;19.10;99.90
15638;DHT22;26604;53.596;10.042;2023-09-12T02:04:36;19.10;99.90
15638;DHT22;26604;53.596;10.042;2023-09-12T02:07:03;19.10;99.90
15638;DHT22;26604;53.596;10.042;2023-09-12T02:09:30;19.20;99.90
15638;DHT22;26604;53.596;10.042;2023-09-12T02:11:57;19.30;99.90
15638;DHT22;26604;53.596;10.042;2023-09-12T02:14:24;19.40;99.90
15638;DHT22;26604;53.596;10.042;2023-09-12T02:16:51;19.40;99.90
15638;DHT22;26604;53.596;10.042;2023-09-12T02:19:18;19.40;99.90
15638;DHT22;26604;53.596;10.042;2023-09-12T02:21:46;19.40;99.90
15638;DHT22;26604;53.596;10.042;2023-09-12T02:24:13;19.40;99.90
15638;DHT22;26604;53.596;10.042;2023-09-12T02:26:40;19.30;99.90
15638;DHT22;26604;53.596;10.042;2023-09-12T02:29:06;19.30;99.90
15638;DHT22;26604;53.596;10.042;2023-09-12T02:31:35;19.30;99.90
15638;DHT22;26604;53.596;10.042;2023-09-12T02:34:02;19.30;99.90
15638;DHT22;26604;53.596;10.042;2023-09-12T02:36:29;19.20;99.90
15638;DHT22;26604;53.596;10.042;2023-09-12T02:38:58;19.20;99.90
15638;DHT22;26604;53.596;10.042;2023-09-12T02:41:25;19.20;99.90
15638;DHT22;26604;53.596;10.042;2023-09-12T02:43:51;19.10;99.90
15638;DHT22;26604;53.596;10.042;2023-09-12T02:46:18;19.10;99.90
15638;DHT22;26604;53.596;10.042;2023-09-12T02:48:45;19.10;99.90
15638;DHT22;26604;53.596;10.042;2023-09-12T02:51:12;19.10;99.90
15638;DHT22;26604;53.596;10.042;2023-09-12T02:53:39;19.10;99.90
15638;DHT22;26604;53.596;10.042;2023-09-12T02:56:07;19.00;99.90
15638;DHT22;26604;53.596;10.042;2023-09-12T02:58:34;19.10;99.90
15638;DHT22;26604;53.596;10.042;2023-09-12T03:01:01;19.10;99.90
15638;DHT22;26604;53.596;10.042;2023-09-12T03:03:30;19.10;99.90
15638;DHT22;26604;53.596;10.042;2023-09-12T03:05:58;19.10;99.90
15638;DHT22;26604;53.596;10.042;2023-09-12T03:08:25;19.10;99.90
15638;DHT22;26604;53.596;10.042;2023-09-12T03:10:54;19.20;99.90
15638;DHT22;26604;53.596;10.042;2023-09-12T03:13:23;19.20;99.90
15638;DHT22;26604;53.596;10.042;2023-09-12T03:15:51;19.30;99.90
15638;DHT22;26604;53.596;10.042;2023-09-12T03:18:18;19.30;99.90
15638;DHT22;26604;53.596;10.042;2023-09-12T03:20:45;19.30;99.90
15638;DHT22;26604;53.596;10.042;2023-09-12T03:23:11;19.30;99.90
15638;DHT22;26604;53.596;10.042;2023-09-12T03:25:39;19.40;99.90
15638;DHT22;26604;53.596;10.042;2023-09-12T03:28:06;19.40;99.90
15638;DHT22;26604;53.596;10.042;2023-09-12T03:30:36;19.40;99.90
15638;DHT22;26604;53.596;10.042;2023-09-12T03:33:04;19.40;99.90
15638;DHT22;26604;53.596;10.042;2023-09-12T03:35:32;19.40;99.90
15638;DHT22;26604;53.596;10.042;2023-09-12T03:37:59;19.40;99.90
15638;DHT22;26604;53.596;10.042;2023-09-12T03:40:28;19.40;99.90
15638;DHT22;26604;53.596;10.042;2023-09-12T03:42:55;19.30;99.90
15638;DHT22;26604;53.596;10.042;2023-09-12T03:45:21;19.30;99.90
15638;DHT22;26604;53.596;10.042;2023-09-12T03:47:50;19.30;99.90
15638;DHT22;26604;53.596;10.042;2023-09-12T03:50:17;19.30;99.90
15638;DHT22;26604;53.596;10.042;2023-09-12T03:52:44;19.20;99.90
15638;DHT22;26604;53.596;10.042;2023-09-12T03:55:11;19.20;99.90
15638;DHT22;26604;53.596;10.042;2023-09-12T03:57:38;19.20;99.90
15638;DHT22;26604;53.596;10.042;2023-09-12T04:00:06;19.20;99.90
15638;DHT22;26604;53.596;10.042;2023-09-12T04:02:34;19.20;99.90
15638;DHT22;26604;53.596;10.042;2023-09-12T04:05:03;19.20;99.90
15638;DHT22;26604;53.596;10.042;2023-09-12T04:07:30;19.20;99.90
15638;DHT22;26604;53.596;10.042;2023-09-12T04:09:56;19.20;99.90
15638;DHT22;26604;53.596;10.042;2023-09-12T04:12:23;19.20;99.90
15638;DHT22;26604;53.596;10.042;2023-09-12T04:14:50;19.10;99.90
15638;DHT22;26604;53.596;10.042;2023-09-12T04:17:17;19.20;99.90
15638;DHT22;26604;53.596;10.042;2023-09-12T04:19:44;19.10;99.90
15638;DHT22;26604;53.596;10.042;2023-09-12T04:22:13;19.10;99.90
15638;DHT22;26604;53.596;10.042;2023-09-12T04:24:40;19.20;99.90
15638;DHT22;26604;53.596;10.042;2023-09-12T04:27:07;19.10;99.90
15638;DHT22;26604;53.596;10.042;2023-09-12T04:29:34;19.10;99.90
15638;DHT22;26604;53.596;10.042;2023-09-12T04:32:02;19.10;99.90
15638;DHT22;26604;53.596;10.042;2023-09-12T04:34:29;19.10;99.90
15638;DHT22;26604;53.596;10.042;2023-09-12T04:36:56;19.00;99.90
15638;DHT22;26604;53.596;10.042;2023-09-12T04:39:24;19.00;99.90
15638;DHT22;26604;53.596;10.042;2023-09-12T04:41:51;19.00;99.90
15638;DHT22;26604;53.596;10.042;2023-09-12T04:44:18;19.00;99.90
15638;DHT22;26604;53.596;10.042;2023-09-12T04:46:45;19.00;99.90
15638;DHT22;26604;53.596;10.042;2023-09-12T04:49:12;18.90;99.90
15638;DHT22;26604;53.596;10.042;2023-09-12T04:51:39;19.00;99.90
15638;DHT22;26604;53.596;10.042;2023-09-12T04:54:08;19.00;99.90
15638;DHT22;26604;53.596;10.042;2023-09-12T04:56:36;19.00;99.90
15638;DHT22;26604;53.596;10.042;2023-09-12T04:59:03;19.00;99.90
15638;DHT22;26604;53.596;10.042;2023-09-12T05:01:32;19.00;99.90
15638;DHT22;26604;53.596;10.042;2023-09-12T05:03:59;19.00;99.90
15638;DHT22;26604;53.596;10.042;2023-09-12T05:06:26;19.00;99.90
15638;DHT22;26604;53.596;10.042;2023-09-12T05:08:53;18.90;99.90
15638;DHT22;26604;53.596;10.042;2023-09-12T05:11:21;18.90;99.90
15638;DHT22;26604;53.596;10.042;2023-09-12T05:13:50;18.90;99.90
15638;DHT22;26604;53.596;10.042;2023-09-12T05:16:17;18.90;99.90
15638;DHT22;26604;53.596;10.042;2023-09-12T05:18:44;18.90;99.90
15638;DHT22;26604;53.596;10.042;2023-09-12T05:21:10;19.00;99.90
15638;DHT22;26604;53.596;10.042;2023-09-12T05:23:37;19.00;99.90
15638;DHT22;26604;53.596;10.042;2023-09-12T05:26:04;19.00;99.90
15638;DHT22;26604;53.596;10.042;2023-09-12T05:28:32;19.00;99.90
15638;DHT22;26604;53.596;10.042;2023-09-12T05:31:00;19.00;99.90
15638;DHT22;26604;53.596;10.042;2023-09-12T05:33:28;19.00;99.90
15638;DHT22;26604;53.596;10.042;2023-09-12T05:35:55;19.10;99.90
15638;DHT22;26604;53.596;10.042;2023-09-12T05:38:22;19.10;99.90
15638;DHT22;26604;53.596;10.042;2023-09-12T05:40:49;19.20;99.90
15638;DHT22;26604;53.596;10.042;2023-09-12T05:43:16;19.10;99.90
15638;DHT22;26604;53.596;10.042;2023-09-12T05:45:43;19.20;99.90
15638;DHT22;26604;53.596;10.042;2023-09-12T05:48:12;19.20;99.90
15638;DHT22;26604;53.596;10.042;2023-09-12T05:50:38;19.10;99.90
15638;DHT22;26604;53.596;10.042;2023-09-12T05:53:05;19.10;99.90
15638;DHT22;26604;53.596;10.042;2023-09-12T05:55:32;19.10;99.90
15638;DHT22;26604;53.596;10.042;2023-09-12T05:57:59;19.10;99.90
15638;DHT22;26604;53.596;10.042;2023-09-12T06:00:26;19.10;99.90
15638;DHT22;26604;53.596;10.042;2023-09-12T06:02:54;19.10;99.90
15638;DHT22;26604;53.596;10.042;2023-09-12T06:05:22;19.10;99.90
15638;DHT22;26604;53.596;10.042;2023-09-12T06:07:49;19.10;99.90
15638;DHT22;26604;53.596;10.042;2023-09-12T06:10:16;19.10;99.90
15638;DHT22;26604;53.596;10.042;2023-09-12T06:12:42;19.20;99.90
15638;DHT22;26604;53.596;10.042;2023-09-12T06:15:10;19.20;99.90
15638;DHT22;26604;53.596;10.042;2023-09-12T06:17:37;19.30;99.90
15638;DHT22;26604;53.596;10.042;2023-09-12T06:20:05;19.30;99.90
15638;DHT22;26604;53.596;10.042;2023-09-12T06:22:33;19.40;99.90
15638;DHT22;26604;53.596;10.042;2023-09-12T06:25:01;19.40;99.90
15638;DHT22;26604;53.596;10.042;2023-09-12T06:27:28;19.50;99.90
15638;DHT22;26604;53.596;10.042;2023-09-12T06:29:57;19.60;99.90
15638;DHT22;26604;53.596;10.042;2023-09-12T06:32:24;19.70;99.90
15638;DHT22;26604;53.596;10.042;2023-09-12T06:34:50;19.80;99.90
15638;DHT22;26604;53.596;10.042;2023-09-12T06:37:17;19.80;99.90
15638;DHT22;26604;53.596;10.042;2023-09-12T06:39:49;19.90;99.90
15638;DHT22;26604;53.596;10.042;2023-09-12T06:42:16;20.00;99.90
15638;DHT22;26604;53.596;10.042;2023-09-12T06:44:43;20.00;99.90
15638;DHT22;26604;53.596;10.042;2023-09-12T06:47:09;20.00;99.90
15638;DHT22;26604;53.596;10.042;2023-09-12T06:49:36;20.00;99.90
15638;DHT22;26604;53.596;10.042;2023-09-12T06:52:04;20.10;99.90
15638;DHT22;26604;53.596;10.042;2023-09-12T06:54:32;20.10;99.90
15638;DHT22;26604;53.596;10.042;2023-09-12T06:57:01;20.20;99.90
15638;DHT22;26604;53.596;10.042;2023-09-12T06:59:28;20.20;99.90
15638;DHT22;26604;53.596;10.042;2023-09-12T07:01:55;20.30;99.90
15638;DHT22;26604;53.596;10.042;2023-09-12T07:04:22;20.40;99.90
15638;DHT22;26604;53.596;10.042;2023-09-12T07:06:49;20.50;99.90
15638;DHT22;26604;53.596;10.042;2023-09-12T07:09:16;20.60;99.90
15638;DHT22;26604;53.596;10.042;2023-09-12T07:11:44;20.80;99.90
15638;DHT22;26604;53.596;10.042;2023-09-12T07:14:12;20.90;99.90
15638;DHT22;26604;53.596;10.042;2023-09-12T07:16:39;21.00;99.90
15638;DHT22;26604;53.596;10.042;2023-09-12T07:19:06;21.10;99.90
15638;DHT22;26604;53.596;10.042;2023-09-12T07:21:33;21.30;99.90
15638;DHT22;26604;53.596;10.042;2023-09-12T07:24:00;21.30;99.90
15638;DHT22;26604;53.596;10.042;2023-09-12T07:26:27;21.40;99.90
15638;DHT22;26604;53.596;10.042;2023-09-12T07:28:53;21.40;99.90
15638;DHT22;26604;53.596;10.042;2023-09-12T07:31:22;21.50;99.90
15638;DHT22;26604;53.596;10.042;2023-09-12T07:33:49;21.50;99.90
15638;DHT22;26604;53.596;10.042;2023-09-12T07:36:16;21.50;99.90
15638;DHT22;26604;53.596;10.042;2023-09-12T07:38:42;21.50;99.90
15638;DHT22;26604;53.596;10.042;2023-09-12T07:41:11;21.50;99.90
15638;DHT22;26604;53.596;10.042;2023-09-12T07:43:37;21.60;99.90
15638;DHT22;26604;53.596;10.042;2023-09-12T07:46:05;21.60;99.90
15638;DHT22;26604;53.596;10.042;2023-09-12T07:48:34;21.70;99.90
15638;DHT22;26604;53.596;10.042;2023-09-12T07:51:01;21.70;99.90
15638;DHT22;26604;53.596;10.042;2023-09-12T07:53:28;21.70;99.90
15638;DHT22;26604;53.596;10.042;2023-09-12T07:55:59;21.80;99.90
15638;DHT22;26604;53.596;10.042;2023-09-12T07:58:26;21.80;99.90
15638;DHT22;26604;53.596;10.042;2023-09-12T08:00:53;21.80;99.90
15638;DHT22;26604;53.596;10.042;2023-09-12T08:03:19;22.00;99.90
15638;DHT22;26604;53.596;10.042;2023-09-12T08:05:55;22.00;99.90
15638;DHT22;26604;53.596;10.042;2023-09-12T08:08:23;22.10;99.90
15638;DHT22;26604;53.596;10.042;2023-09-12T08:10:50;22.20;99.90
15638;DHT22;26604;53.596;10.042;2023-09-12T08:13:16;22.30;99.90
15638;DHT22;26604;53.596;10.042;2023-09-12T08:15:43;22.40;99.90
15638;DHT22;26604;53.596;10.042;2023-09-12T08:18:10;22.50;99.90
15638;DHT22;26604;53.596;10.042;2023-09-12T08:20:38;22.60;99.90
15638;DHT22;26604;53.596;10.042;2023-09-12T08:23:06;22.60;99.90
15638;DHT22;26604;53.596;10.042;2023-09-12T08:25:33;22.70;99.90
15638;DHT22;26604;53.596;10.042;2023-09-12T08:28:00;22.70;99.90
15638;DHT22;26604;53.596;10.042;2023-09-12T08:30:27;22.80;99.90
15638;DHT22;26604;53.596;10.042;2023-09-12T08:32:55;22.80;99.90
15638;DHT22;26604;53.596;10.042;2023-09-12T08:35:21;22.90;99.90
15638;DHT22;26604;53.596;10.042;2023-09-12T08:37:48;23.00;99.90
15638;DHT22;26604;53.596;10.042;2023-09-12T08:40:17;23.00;99.90
15638;DHT22;26604;53.596;10.042;2023-09-12T08:42:44;23.00;99.90
15638;DHT22;26604;53.596;10.042;2023-09-12T08:45:13;23.00;99.90
15638;DHT22;26604;53.596;10.042;2023-09-12T08:47:42;23.10;99.90
15638;DHT22;26604;53.596;10.042;2023-09-12T08:50:11;23.20;99.90
15638;DHT22;26604;53.596;10.042;2023-09-12T08:52:39;23.40;99.90
15638;DHT22;26604;53.596;10.042;2023-09-12T08:55:07;23.50;99.90
15638;DHT22;26604;53.596;10.042;2023-09-12T08:57:38;23.70;77.50
15638;DHT22;26604;53.596;10.042;2023-09-12T09:00:06;23.90;18.60
15638;DHT22;26604;53.596;10.042;2023-09-12T09:02:34;24.00;16.40
15638;DHT22;26604;53.596;10.042;2023-09-12T09:05:02;24.10;3.70
15638;DHT22;26604;53.596;10.042;2023-09-12T09:07:32;24.20;1.00
15638;DHT22;26604;53.596;10.042;2023-09-12T09:10:02;24.20;1.00
15638;DHT22;26604;53.596;10.042;2023-09-12T09:12:30;24.00;1.00
15638;DHT22;26604;53.596;10.042;2023-09-12T09:14:58;23.90;1.00
15638;DHT22;26604;53.596;10.042;2023-09-12T09:17:26;23.70;1.00
15638;DHT22;26604;53.596;10.042;2023-09-12T09:19:53;23.60;11.50
15638;DHT22;26604;53.596;10.042;2023-09-12T09:22:20;23.60;38.30
15638;DHT22;26604;53.596;10.042;2023-09-12T09:24:48;23.80;25.00
15638;DHT22;26604;53.596;10.042;2023-09-12T09:27:32;24.00;1.00
15638;DHT22;26604;53.596;10.042;2023-09-12T09:30:01;24.30;1.00
15638;DHT22;26604;53.596;10.042;2023-09-12T09:32:28;24.40;1.00
15638;DHT22;26604;53.596;10.042;2023-09-12T09:34:55;24.50;1.00
15638;DHT22;26604;53.596;10.042;2023-09-12T09:37:23;24.60;1.00
15638;DHT22;26604;53.596;10.042;2023-09-12T09:39:51;24.70;1.00
15638;DHT22;26604;53.596;10.042;2023-09-12T09:42:18;24.70;1.00
15638;DHT22;26604;53.596;10.042;2023-09-12T09:44:45;24.90;1.00
15638;DHT22;26604;53.596;10.042;2023-09-12T09:47:13;25.10;1.00
15638;DHT22;26604;53.596;10.042;2023-09-12T09:49:40;25.30;1.00
15638;DHT22;26604;53.596;10.042;2023-09-12T09:52:07;25.60;99.90
15638;DHT22;26604;53.596;10.042;2023-09-12T09:54:34;25.60;99.90
15638;DHT22;26604;53.596;10.042;2023-09-12T09:57:01;25.70;1.00
15638;DHT22;26604;53.596;10.042;2023-09-12T09:59:28;25.60;95.10
15638;DHT22;26604;53.596;10.042;2023-09-12T10:01:57;25.50;99.90
15638;DHT22;26604;53.596;10.042;2023-09-12T10:04:27;25.40;39.00
15638;DHT22;26604;53.596;10.042;2023-09-12T10:06:56;25.10;99.90
15638;DHT22;26604;53.596;10.042;2023-09-12T10:09:26;24.80;99.90
15638;DHT22;26604;53.596;10.042;2023-09-12T10:11:55;24.40;1.00
15638;DHT22;26604;53.596;10.042;2023-09-12T10:14:23;24.10;1.00
15638;DHT22;26604;53.596;10.042;2023-09-12T10:16:50;23.90;1.00
15638;DHT22;26604;53.596;10.042;2023-09-12T10:19:23;23.70;1.00
15638;DHT22;26604;53.596;10.042;2023-09-12T10:21:57;23.50;1.00
15638;DHT22;26604;53.596;10.042;2023-09-12T10:24:27;23.40;1.00
15638;DHT22;26604;53.596;10.042;2023-09-12T10:26:55;23.20;1.00
15638;DHT22;26604;53.596;10.042;2023-09-12T10:29:22;23.10;1.00
15638;DHT22;26604;53.596;10.042;2023-09-12T10:31:49;23.00;1.00
15638;DHT22;26604;53.596;10.042;2023-09-12T10:34:16;23.00;8.10
15638;DHT22;26604;53.596;10.042;2023-09-12T10:36:45;23.00;26.30
15638;DHT22;26604;53.596;10.042;2023-09-12T10:39:14;23.00;21.40
15638;DHT22;26604;53.596;10.042;2023-09-12T10:41:42;23.00;2.90
15638;DHT22;26604;53.596;10.042;2023-09-12T10:44:10;23.00;1.00
15638;DHT22;26604;53.596;10.042;2023-09-12T10:46:38;22.90;23.90
15638;DHT22;26604;53.596;10.042;2023-09-12T10:49:07;22.90;2.00
15638;DHT22;26604;53.596;10.042;2023-09-12T10:51:37;23.00;28.80
15638;DHT22;26604;53.596;10.042;2023-09-12T10:54:05;23.10;4.90
15638;DHT22;26604;53.596;10.042;2023-09-12T10:56:34;23.10;8.80
15638;DHT22;26604;53.596;10.042;2023-09-12T10:59:22;23.30;1.00
15638;DHT22;26604;53.596;10.042;2023-09-12T11:01:50;23.40;1.00
15638;DHT22;26604;53.596;10.042;2023-09-12T11:04:31;23.50;1.00
15638;DHT22;26604;53.596;10.042;2023-09-12T11:07:01;23.50;1.00
15638;DHT22;26604;53.596;10.042;2023-09-12T11:09:28;23.50;1.00
15638;DHT22;26604;53.596;10.042;2023-09-12T11:11:59;23.40;1.00
15638;DHT22;26604;53.596;10.042;2023-09-12T11:14:28;23.30;1.00
15638;DHT22;26604;53.596;10.042;2023-09-12T11:17:20;23.10;1.00
15638;DHT22;26604;53.596;10.042;2023-09-12T11:19:49;23.00;13.70
15638;DHT22;26604;53.596;10.042;2023-09-12T11:22:22;23.00;36.60
15638;DHT22;26604;53.596;10.042;2023-09-12T11:24:49;23.00;69.30
15638;DHT22;26604;53.596;10.042;2023-09-12T11:27:17;23.10;30.90
15638;DHT22;26604;53.596;10.042;2023-09-12T11:29:46;23.20;8.60
15638;DHT22;26604;53.596;10.042;2023-09-12T11:32:26;23.30;1.00
15638;DHT22;26604;53.596;10.042;2023-09-12T11:34:53;23.30;1.00
15638;DHT22;26604;53.596;10.042;2023-09-12T11:37:23;23.30;1.00
15638;DHT22;26604;53.596;10.042;2023-09-12T11:39:50;23.20;1.00
15638;DHT22;26604;53.596;10.042;2023-09-12T11:42:19;23.10;1.20
15638;DHT22;26604;53.596;10.042;2023-09-12T11:44:49;23.10;22.20
15638;DHT22;26604;53.596;10.042;2023-09-12T11:47:16;23.00;1.00
15638;DHT22;26604;53.596;10.042;2023-09-12T11:49:43;22.90;8.10
15638;DHT22;26604;53.596;10.042;2023-09-12T11:52:12;22.90;2.10
15638;DHT22;26604;53.596;10.042;2023-09-12T11:54:40;23.00;15.30
15638;DHT22;26604;53.596;10.042;2023-09-12T11:57:08;22.90;16.30
15638;DHT22;26604;53.596;10.042;2023-09-12T11:59:42;22.90;22.90
15638;DHT22;26604;53.596;10.042;2023-09-12T12:02:11;23.00;29.60
15638;DHT22;26604;53.596;10.042;2023-09-12T12:04:38;23.00;28.30
15638;DHT22;26604;53.596;10.042;2023-09-12T12:07:05;23.00;35.90
15638;DHT22;26604;53.596;10.042;2023-09-12T12:09:33;23.00;45.20
15638;DHT22;26604;53.596;10.042;2023-09-12T12:12:19;23.00;76.70
15638;DHT22;26604;53.596;10.042;2023-09-12T12:14:47;23.00;94.70
15638;DHT22;26604;53.596;10.042;2023-09-12T12:17:15;23.00;99.90
15638;DHT22;26604;53.596;10.042;2023-09-12T12:19:45;23.00;99.90
15638;DHT22;26604;53.596;10.042;2023-09-12T12:22:12;23.00;99.90
15638;DHT22;26604;53.596;10.042;2023-09-12T12:24:41;23.00;99.90
15638;DHT22;26604;53.596;10.042;2023-09-12T12:27:08;23.00;99.90
15638;DHT22;26604;53.596;10.042;2023-09-12T12:29:37;23.00;99.90
15638;DHT22;26604;53.596;10.042;2023-09-12T12:32:06;23.00;99.90
15638;DHT22;26604;53.596;10.042;2023-09-12T12:34:35;23.00;99.90
15638;DHT22;26604;53.596;10.042;2023-09-12T12:37:02;23.10;97.30
15638;DHT22;26604;53.596;10.042;2023-09-12T12:39:31;23.10;56.50
15638;DHT22;26604;53.596;10.042;2023-09-12T12:41:57;23.10;99.90
15638;DHT22;26604;53.596;10.042;2023-09-12T12:44:33;23.20;99.90
15638;DHT22;26604;53.596;10.042;2023-09-12T12:47:05;23.30;99.90
15638;DHT22;26604;53.596;10.042;2023-09-12T12:49:36;23.40;53.60
15638;DHT22;26604;53.596;10.042;2023-09-12T12:52:04;23.50;71.70
15638;DHT22;26604;53.596;10.042;2023-09-12T12:54:32;23.60;47.10
15638;DHT22;26604;53.596;10.042;2023-09-12T12:57:00;23.70;51.10
15638;DHT22;26604;53.596;10.042;2023-09-12T12:59:27;23.80;22.80
15638;DHT22;26604;53.596;10.042;2023-09-12T13:01:55;23.90;19.50
15638;DHT22;26604;53.596;10.042;2023-09-12T13:04:24;24.00;1.00
15638;DHT22;26604;53.596;10.042;2023-09-12T13:06:51;24.00;1.00
15638;DHT22;26604;53.596;10.042;2023-09-12T13:09:18;24.10;1.00
15638;DHT22;26604;53.596;10.042;2023-09-12T13:11:46;24.10;1.00
15638;DHT22;26604;53.596;10.042;2023-09-12T13:14:13;24.20;1.00
15638;DHT22;26604;53.596;10.042;2023-09-12T13:16:39;24.30;1.00
15638;DHT22;26604;53.596;10.042;2023-09-12T13:19:06;24.30;1.00
15638;DHT22;26604;53.596;10.042;2023-09-12T13:21:35;24.40;1.00
15638;DHT22;26604;53.596;10.042;2023-09-12T13:24:03;24.50;1.00
15638;DHT22;26604;53.596;10.042;2023-09-12T13:26:30;24.40;1.00
15638;DHT22;26604;53.596;10.042;2023-09-12T13:28:57;24.40;1.00
15638;DHT22;26604;53.596;10.042;2023-09-12T13:31:24;24.50;1.00
15638;DHT22;26604;53.596;10.042;2023-09-12T13:33:51;24.60;1.00
15638;DHT22;26604;53.596;10.042;2023-09-12T13:36:18;24.70;1.00
15638;DHT22;26604;53.596;10.042;2023-09-12T13:38:46;24.80;1.00
15638;DHT22;26604;53.596;10.042;2023-09-12T13:41:14;24.80;1.00
15638;DHT22;26604;53.596;10.042;2023-09-12T13:43:40;25.00;1.00
15638;DHT22;26604;53.596;10.042;2023-09-12T13:46:10;25.20;1.00
15638;DHT22;26604;53.596;10.042;2023-09-12T13:48:38;25.40;1.00
15638;DHT22;26604;53.596;10.042;2023-09-12T13:51:04;25.50;99.90
15638;DHT22;26604;53.596;10.042;2023-09-12T13:53:31;25.60;99.90
15638;DHT22;26604;53.596;10.042;2023-09-12T13:56:00;25.60;99.90
15638;DHT22;26604;53.596;10.042;2023-09-12T13:58:27;25.50;99.90
15638;DHT22;26604;53.596;10.042;2023-09-12T14:00:54;25.40;99.90
15638;DHT22;26604;53.596;10.042;2023-09-12T14:03:21;25.30;99.90
15638;DHT22;26604;53.596;10.042;2023-09-12T14:05:48;25.20;99.90
15638;DHT22;26604;53.596;10.042;2023-09-12T14:08:15;25.20;99.90
15638;DHT22;26604;53.596;10.042;2023-09-12T14:10:43;25.30;99.90
15638;DHT22;26604;53.596;10.042;2023-09-12T14:13:11;25.30;99.90
15638;DHT22;26604;53.596;10.042;2023-09-12T14:15:38;25.30;99.90
15638;DHT22;26604;53.596;10.042;2023-09-12T14:18:05;25.30;99.90
15638;DHT22;26604;53.596;10.042;2023-09-12T14:20:31;25.20;99.90
15638;DHT22;26604;53.596;10.042;2023-09-12T14:22:58;25.10;99.90
15638;DHT22;26604;53.596;10.042;2023-09-12T14:25:27;25.00;99.90
15638;DHT22;26604;53.596;10.042;2023-09-12T14:27:53;24.90;99.90
15638;DHT22;26604;53.596;10.042;2023-09-12T14:30:22;24.90;99.90
15638;DHT22;26604;53.596;10.042;2023-09-12T14:32:51;25.00;99.90
15638;DHT22;26604;53.596;10.042;2023-09-12T14:35:18;25.10;99.90
15638;DHT22;26604;53.596;10.042;2023-09-12T14:37:45;25.10;99.90
15638;DHT22;26604;53.596;10.042;2023-09-12T14:40:14;25.20;99.90
15638;DHT22;26604;53.596;10.042;2023-09-12T14:42:42;25.30;99.90
15638;DHT22;26604;53.596;10.042;2023-09-12T14:45:10;25.30;99.90
15638;DHT22;26604;53.596;10.042;2023-09-12T14:47:38;25.40;99.90
15638;DHT22;26604;53.596;10.042;2023-09-12T14:50:05;25.40;99.90
15638;DHT22;26604;53.596;10.042;2023-09-12T14:52:32;25.40;42.40
15638;DHT22;26604;53.596;10.042;2023-09-12T14:55:00;25.30;99.90
15638;DHT22;26604;53.596;10.042;2023-09-12T14:57:28;25.10;99.90
15638;DHT22;26604;53.596;10.042;2023-09-12T14:59:55;25.00;99.90
15638;DHT22;26604;53.596;10.042;2023-09-12T15:02:23;24.90;99.90
15638;DHT22;26604;53.596;10.042;2023-09-12T15:04:57;24.80;99.90
15638;DHT22;26604;53.596;10.042;2023-09-12T15:07:24;24.80;99.90
15638;DHT22;26604;53.596;10.042;2023-09-12T15:09:51;24.70;99.90
15638;DHT22;26604;53.596;10.042;2023-09-12T15:12:18;24.70;99.90
15638;DHT22;26604;53.596;10.042;2023-09-12T15:14:45;24.80;99.90
15638;DHT22;26604;53.596;10.042;2023-09-12T15:17:12;24.80;99.90
15638;DHT22;26604;53.596;10.042;2023-09-12T15:19:39;24.80;99.90
15638;DHT22;26604;53.596;10.042;2023-09-12T15:22:07;24.80;99.90
15638;DHT22;26604;53.596;10.042;2023-09-12T15:24:34;24.80;99.90